sensor_id;sensor_type;location;lat;lon;timestamp;P1;durP1;ratioP1;P2;durP2;ratioP2
78368;SDS011;71113;43.092;-89.268;2023-10-19T00:00:34;38.85;;;16.17;;
78368;SDS011;71113;43.092;-89.268;2023-10-19T00:03:04;31.67;;;13.85;;
78368;SDS011;71113;43.092;-89.268;2023-10-19T00:05:34;29.75;;;13.48;;
78368;SDS011;71113;43.092;-89.268;2023-10-19T00:08:00;30.95;;;13.07;;
78368;SDS011;71113;43.092;-89.268;2023-10-19T00:10:47;30.88;;;13.35;;
78368;SDS011;71113;43.092;-89.268;2023-10-19T00:13:35;30.27;;;12.25;;
78368;SDS011;71113;43.092;-89.268;2023-10-19T00:16:05;30.35;;;13.75;;
78368;SDS011;71113;43.092;-89.268;2023-10-19T00:18:37;32.47;;;13.07;;
78368;SDS011;71113;43.092;-89.268;2023-10-19T00:21:08;28.67;;;12.90;;
78368;SDS011;71113;43.092;-89.268;2023-10-19T00:23:47;30.52;;;13.45;;
78368;SDS011;71113;43.092;-89.268;2023-10-19T00:26:14;31.65;;;12.68;;
78368;SDS011;71113;43.092;-89.268;2023-10-19T00:28:45;31.70;;;13.77;;
78368;SDS011;71113;43.092;-89.268;2023-10-19T00:31:18;29.02;;;13.63;;
78368;SDS011;71113;43.092;-89.268;2023-10-19T00:33:47;26.63;;;11.63;;
78368;SDS011;71113;43.092;-89.268;2023-10-19T00:36:16;22.83;;;10.65;;
78368;SDS011;71113;43.092;-89.268;2023-10-19T00:38:45;24.00;;;10.77;;
78368;SDS011;71113;43.092;-89.268;2023-10-19T00:41:15;25.17;;;10.93;;
78368;SDS011;71113;43.092;-89.268;2023-10-19T00:43:52;21.75;;;9.85;;
78368;SDS011;71113;43.092;-89.268;2023-10-19T00:46:39;22.73;;;10.35;;
78368;SDS011;71113;43.092;-89.268;2023-10-19T00:49:08;24.88;;;10.27;;
78368;SDS011;71113;43.092;-89.268;2023-10-19T00:51:41;26.48;;;11.15;;
78368;SDS011;71113;43.092;-89.268;2023-10-19T00:57:17;22.45;;;10.55;;
78368;SDS011;71113;43.092;-89.268;2023-10-19T00:59:58;22.98;;;11.02;;
78368;SDS011;71113;43.092;-89.268;2023-10-19T01:02:38;21.30;;;9.65;;
78368;SDS011;71113;43.092;-89.268;2023-10-19T01:05:11;19.10;;;8.60;;
78368;SDS011;71113;43.092;-89.268;2023-10-19T01:07:40;19.58;;;8.50;;
78368;SDS011;71113;43.092;-89.268;2023-10-19T01:10:07;20.38;;;8.85;;
78368;SDS011;71113;43.092;-89.268;2023-10-19T01:12:34;18.65;;;8.88;;
78368;SDS011;71113;43.092;-89.268;2023-10-19T01:15:13;18.65;;;8.13;;
78368;SDS011;71113;43.092;-89.268;2023-10-19T01:17:49;20.17;;;8.82;;
78368;SDS011;71113;43.092;-89.268;2023-10-19T01:20:23;17.38;;;7.80;;
78368;SDS011;71113;43.092;-89.268;2023-10-19T01:23:00;18.85;;;8.73;;
78368;SDS011;71113;43.092;-89.268;2023-10-19T01:28:09;17.45;;;8.00;;
78368;SDS011;71113;43.092;-89.268;2023-10-19T01:30:38;17.52;;;7.80;;
78368;SDS011;71113;43.092;-89.268;2023-10-19T01:33:04;17.80;;;8.35;;
78368;SDS011;71113;43.092;-89.268;2023-10-19T01:35:38;15.65;;;7.50;;
78368;SDS011;71113;43.092;-89.268;2023-10-19T01:38:23;15.25;;;7.20;;
78368;SDS011;71113;43.092;-89.268;2023-10-19T01:40:50;15.70;;;7.93;;
78368;SDS011;71113;43.092;-89.268;2023-10-19T01:43:16;16.00;;;7.32;;
78368;SDS011;71113;43.092;-89.268;2023-10-19T01:45:56;11.75;;;6.32;;
78368;SDS011;71113;43.092;-89.268;2023-10-19T01:48:22;15.07;;;7.35;;
78368;SDS011;71113;43.092;-89.268;2023-10-19T01:50:59;16.08;;;7.30;;
78368;SDS011;71113;43.092;-89.268;2023-10-19T01:53:30;14.45;;;6.63;;
78368;SDS011;71113;43.092;-89.268;2023-10-19T01:55:57;14.05;;;6.57;;
78368;SDS011;71113;43.092;-89.268;2023-10-19T01:58:26;14.40;;;6.30;;
78368;SDS011;71113;43.092;-89.268;2023-10-19T02:00:52;14.27;;;6.75;;
78368;SDS011;71113;43.092;-89.268;2023-10-19T02:03:28;10.90;;;5.53;;
78368;SDS011;71113;43.092;-89.268;2023-10-19T02:05:58;11.40;;;6.28;;
78368;SDS011;71113;43.092;-89.268;2023-10-19T02:08:24;13.05;;;6.50;;
78368;SDS011;71113;43.092;-89.268;2023-10-19T02:10:52;11.55;;;5.57;;
78368;SDS011;71113;43.092;-89.268;2023-10-19T02:13:21;10.13;;;5.38;;
78368;SDS011;71113;43.092;-89.268;2023-10-19T02:15:48;10.57;;;5.30;;
78368;SDS011;71113;43.092;-89.268;2023-10-19T02:18:16;11.43;;;5.78;;
78368;SDS011;71113;43.092;-89.268;2023-10-19T02:20:42;11.45;;;5.50;;
78368;SDS011;71113;43.092;-89.268;2023-10-19T02:25:39;11.98;;;5.90;;
78368;SDS011;71113;43.092;-89.268;2023-10-19T02:28:06;10.35;;;5.20;;
78368;SDS011;71113;43.092;-89.268;2023-10-19T02:30:32;9.82;;;4.72;;
78368;SDS011;71113;43.092;-89.268;2023-10-19T02:33:01;9.25;;;4.43;;
78368;SDS011;71113;43.092;-89.268;2023-10-19T02:35:28;9.13;;;4.40;;
78368;SDS011;71113;43.092;-89.268;2023-10-19T02:37:55;9.38;;;4.55;;
78368;SDS011;71113;43.092;-89.268;2023-10-19T02:40:21;9.52;;;4.88;;
78368;SDS011;71113;43.092;-89.268;2023-10-19T02:42:49;8.98;;;4.50;;
78368;SDS011;71113;43.092;-89.268;2023-10-19T02:45:21;9.43;;;4.10;;
78368;SDS011;71113;43.092;-89.268;2023-10-19T02:47:48;8.23;;;4.43;;
78368;SDS011;71113;43.092;-89.268;2023-10-19T02:50:15;8.27;;;4.28;;
78368;SDS011;71113;43.092;-89.268;2023-10-19T02:52:47;9.68;;;4.53;;
78368;SDS011;71113;43.092;-89.268;2023-10-19T02:55:14;8.85;;;4.63;;
78368;SDS011;71113;43.092;-89.268;2023-10-19T02:57:43;8.82;;;4.30;;
78368;SDS011;71113;43.092;-89.268;2023-10-19T03:00:12;9.05;;;4.55;;
78368;SDS011;71113;43.092;-89.268;2023-10-19T03:02:45;7.63;;;3.70;;
78368;SDS011;71113;43.092;-89.268;2023-10-19T03:05:12;6.65;;;3.38;;
78368;SDS011;71113;43.092;-89.268;2023-10-19T03:07:42;6.50;;;3.60;;
78368;SDS011;71113;43.092;-89.268;2023-10-19T03:10:09;7.22;;;4.18;;
78368;SDS011;71113;43.092;-89.268;2023-10-19T03:12:50;7.63;;;3.90;;
78368;SDS011;71113;43.092;-89.268;2023-10-19T03:15:16;7.30;;;3.58;;
78368;SDS011;71113;43.092;-89.268;2023-10-19T03:17:46;8.80;;;3.90;;
78368;SDS011;71113;43.092;-89.268;2023-10-19T03:20:13;7.75;;;3.75;;
78368;SDS011;71113;43.092;-89.268;2023-10-19T03:22:42;6.22;;;3.65;;
78368;SDS011;71113;43.092;-89.268;2023-10-19T03:25:08;8.57;;;4.10;;
78368;SDS011;71113;43.092;-89.268;2023-10-19T03:28:00;7.60;;;3.78;;
78368;SDS011;71113;43.092;-89.268;2023-10-19T03:30:41;5.90;;;3.60;;
78368;SDS011;71113;43.092;-89.268;2023-10-19T03:33:07;6.80;;;3.78;;
78368;SDS011;71113;43.092;-89.268;2023-10-19T03:35:37;6.53;;;3.08;;
78368;SDS011;71113;43.092;-89.268;2023-10-19T03:38:07;6.45;;;3.20;;
78368;SDS011;71113;43.092;-89.268;2023-10-19T03:40:40;6.25;;;3.35;;
78368;SDS011;71113;43.092;-89.268;2023-10-19T03:43:06;6.65;;;3.28;;
78368;SDS011;71113;43.092;-89.268;2023-10-19T03:45:52;8.27;;;3.33;;
78368;SDS011;71113;43.092;-89.268;2023-10-19T03:48:20;5.40;;;3.15;;
78368;SDS011;71113;43.092;-89.268;2023-10-19T03:50:54;5.60;;;2.90;;
78368;SDS011;71113;43.092;-89.268;2023-10-19T03:53:25;5.85;;;3.10;;
78368;SDS011;71113;43.092;-89.268;2023-10-19T03:55:51;5.30;;;2.60;;
78368;SDS011;71113;43.092;-89.268;2023-10-19T03:58:17;5.85;;;3.10;;
78368;SDS011;71113;43.092;-89.268;2023-10-19T04:00:46;6.13;;;3.25;;
78368;SDS011;71113;43.092;-89.268;2023-10-19T04:03:14;5.50;;;2.70;;
78368;SDS011;71113;43.092;-89.268;2023-10-19T04:05:43;5.40;;;2.70;;
78368;SDS011;71113;43.092;-89.268;2023-10-19T04:08:13;4.60;;;2.53;;
78368;SDS011;71113;43.092;-89.268;2023-10-19T04:10:41;4.55;;;2.60;;
78368;SDS011;71113;43.092;-89.268;2023-10-19T04:13:11;5.72;;;2.67;;
78368;SDS011;71113;43.092;-89.268;2023-10-19T04:15:37;6.07;;;2.47;;
78368;SDS011;71113;43.092;-89.268;2023-10-19T04:18:03;4.57;;;2.75;;
78368;SDS011;71113;43.092;-89.268;2023-10-19T04:20:39;5.40;;;2.80;;
78368;SDS011;71113;43.092;-89.268;2023-10-19T04:23:17;4.43;;;2.40;;
78368;SDS011;71113;43.092;-89.268;2023-10-19T04:25:43;4.70;;;2.30;;
78368;SDS011;71113;43.092;-89.268;2023-10-19T04:28:12;5.30;;;2.80;;
78368;SDS011;71113;43.092;-89.268;2023-10-19T04:30:39;4.43;;;2.42;;
78368;SDS011;71113;43.092;-89.268;2023-10-19T04:33:05;4.70;;;2.33;;
78368;SDS011;71113;43.092;-89.268;2023-10-19T04:35:35;3.75;;;2.13;;
78368;SDS011;71113;43.092;-89.268;2023-10-19T04:38:03;4.97;;;2.40;;
78368;SDS011;71113;43.092;-89.268;2023-10-19T04:40:33;4.43;;;2.25;;
78368;SDS011;71113;43.092;-89.268;2023-10-19T04:43:01;4.05;;;2.33;;
78368;SDS011;71113;43.092;-89.268;2023-10-19T04:45:30;4.28;;;2.33;;
78368;SDS011;71113;43.092;-89.268;2023-10-19T04:47:56;3.75;;;2.17;;
78368;SDS011;71113;43.092;-89.268;2023-10-19T04:50:22;4.35;;;2.45;;
78368;SDS011;71113;43.092;-89.268;2023-10-19T04:52:48;4.78;;;2.50;;
78368;SDS011;71113;43.092;-89.268;2023-10-19T04:55:14;3.83;;;2.20;;
78368;SDS011;71113;43.092;-89.268;2023-10-19T04:57:40;4.20;;;2.45;;
78368;SDS011;71113;43.092;-89.268;2023-10-19T05:00:06;4.18;;;2.25;;
78368;SDS011;71113;43.092;-89.268;2023-10-19T05:02:38;3.65;;;2.20;;
78368;SDS011;71113;43.092;-89.268;2023-10-19T05:05:04;3.15;;;1.95;;
78368;SDS011;71113;43.092;-89.268;2023-10-19T05:07:30;3.17;;;1.92;;
78368;SDS011;71113;43.092;-89.268;2023-10-19T05:09:56;4.10;;;2.10;;
78368;SDS011;71113;43.092;-89.268;2023-10-19T05:12:24;3.67;;;2.00;;
78368;SDS011;71113;43.092;-89.268;2023-10-19T05:14:50;3.58;;;2.03;;
78368;SDS011;71113;43.092;-89.268;2023-10-19T05:17:16;3.70;;;2.05;;
78368;SDS011;71113;43.092;-89.268;2023-10-19T05:19:46;4.22;;;2.03;;
78368;SDS011;71113;43.092;-89.268;2023-10-19T05:22:12;3.42;;;1.95;;
78368;SDS011;71113;43.092;-89.268;2023-10-19T05:24:38;3.13;;;1.92;;
78368;SDS011;71113;43.092;-89.268;2023-10-19T05:27:03;3.80;;;2.20;;
78368;SDS011;71113;43.092;-89.268;2023-10-19T05:29:33;3.25;;;1.80;;
78368;SDS011;71113;43.092;-89.268;2023-10-19T05:31:59;3.80;;;2.08;;
78368;SDS011;71113;43.092;-89.268;2023-10-19T05:34:25;2.95;;;1.67;;
78368;SDS011;71113;43.092;-89.268;2023-10-19T05:36:54;2.70;;;1.70;;
78368;SDS011;71113;43.092;-89.268;2023-10-19T05:39:23;3.25;;;2.00;;
78368;SDS011;71113;43.092;-89.268;2023-10-19T05:41:55;4.47;;;2.17;;
78368;SDS011;71113;43.092;-89.268;2023-10-19T05:44:21;3.35;;;1.70;;
78368;SDS011;71113;43.092;-89.268;2023-10-19T05:46:50;3.20;;;1.67;;
78368;SDS011;71113;43.092;-89.268;2023-10-19T05:49:16;2.78;;;1.65;;
78368;SDS011;71113;43.092;-89.268;2023-10-19T05:51:42;2.90;;;1.70;;
78368;SDS011;71113;43.092;-89.268;2023-10-19T05:54:10;3.08;;;1.73;;
78368;SDS011;71113;43.092;-89.268;2023-10-19T05:56:37;3.33;;;1.60;;
78368;SDS011;71113;43.092;-89.268;2023-10-19T05:59:03;3.33;;;1.73;;
78368;SDS011;71113;43.092;-89.268;2023-10-19T06:01:31;3.47;;;2.08;;
78368;SDS011;71113;43.092;-89.268;2023-10-19T06:03:56;3.22;;;1.60;;
78368;SDS011;71113;43.092;-89.268;2023-10-19T06:06:22;2.72;;;1.63;;
78368;SDS011;71113;43.092;-89.268;2023-10-19T06:08:48;2.65;;;1.67;;
78368;SDS011;71113;43.092;-89.268;2023-10-19T06:11:19;3.30;;;1.80;;
78368;SDS011;71113;43.092;-89.268;2023-10-19T06:13:46;2.53;;;1.50;;
78368;SDS011;71113;43.092;-89.268;2023-10-19T06:16:12;2.85;;;1.70;;
78368;SDS011;71113;43.092;-89.268;2023-10-19T06:18:39;3.55;;;1.70;;
78368;SDS011;71113;43.092;-89.268;2023-10-19T06:21:05;2.47;;;1.50;;
78368;SDS011;71113;43.092;-89.268;2023-10-19T06:23:31;3.45;;;2.00;;
78368;SDS011;71113;43.092;-89.268;2023-10-19T06:25:57;2.60;;;1.45;;
78368;SDS011;71113;43.092;-89.268;2023-10-19T06:28:25;2.55;;;1.42;;
78368;SDS011;71113;43.092;-89.268;2023-10-19T06:30:51;3.53;;;1.90;;
78368;SDS011;71113;43.092;-89.268;2023-10-19T06:33:16;2.60;;;1.50;;
78368;SDS011;71113;43.092;-89.268;2023-10-19T06:35:42;3.03;;;1.42;;
78368;SDS011;71113;43.092;-89.268;2023-10-19T06:38:08;2.55;;;1.48;;
78368;SDS011;71113;43.092;-89.268;2023-10-19T06:40:35;3.10;;;1.60;;
78368;SDS011;71113;43.092;-89.268;2023-10-19T06:43:04;4.07;;;1.60;;
78368;SDS011;71113;43.092;-89.268;2023-10-19T06:45:31;2.33;;;1.45;;
78368;SDS011;71113;43.092;-89.268;2023-10-19T06:47:57;3.38;;;1.50;;
78368;SDS011;71113;43.092;-89.268;2023-10-19T06:50:26;3.00;;;1.90;;
78368;SDS011;71113;43.092;-89.268;2023-10-19T06:52:52;2.80;;;1.40;;
78368;SDS011;71113;43.092;-89.268;2023-10-19T06:55:19;2.78;;;1.40;;
78368;SDS011;71113;43.092;-89.268;2023-10-19T06:57:49;2.90;;;2.13;;
78368;SDS011;71113;43.092;-89.268;2023-10-19T07:00:18;3.17;;;1.52;;
78368;SDS011;71113;43.092;-89.268;2023-10-19T07:02:49;2.70;;;1.65;;
78368;SDS011;71113;43.092;-89.268;2023-10-19T07:05:18;2.33;;;1.50;;
78368;SDS011;71113;43.092;-89.268;2023-10-19T07:07:55;2.53;;;1.40;;
78368;SDS011;71113;43.092;-89.268;2023-10-19T07:10:22;2.67;;;1.30;;
78368;SDS011;71113;43.092;-89.268;2023-10-19T07:12:52;2.10;;;1.40;;
78368;SDS011;71113;43.092;-89.268;2023-10-19T07:15:20;2.22;;;1.40;;
78368;SDS011;71113;43.092;-89.268;2023-10-19T07:17:50;1.83;;;1.27;;
78368;SDS011;71113;43.092;-89.268;2023-10-19T07:20:20;1.90;;;1.30;;
78368;SDS011;71113;43.092;-89.268;2023-10-19T07:22:57;2.22;;;1.33;;
78368;SDS011;71113;43.092;-89.268;2023-10-19T07:25:45;2.03;;;1.40;;
78368;SDS011;71113;43.092;-89.268;2023-10-19T07:28:19;2.15;;;1.38;;
78368;SDS011;71113;43.092;-89.268;2023-10-19T07:30:46;1.80;;;1.23;;
78368;SDS011;71113;43.092;-89.268;2023-10-19T07:33:13;2.85;;;1.40;;
78368;SDS011;71113;43.092;-89.268;2023-10-19T07:35:42;2.03;;;1.27;;
78368;SDS011;71113;43.092;-89.268;2023-10-19T07:38:15;2.38;;;1.52;;
78368;SDS011;71113;43.092;-89.268;2023-10-19T07:40:46;1.48;;;1.00;;
78368;SDS011;71113;43.092;-89.268;2023-10-19T07:43:12;1.83;;;1.23;;
78368;SDS011;71113;43.092;-89.268;2023-10-19T07:45:38;2.00;;;1.20;;
78368;SDS011;71113;43.092;-89.268;2023-10-19T07:48:05;4.05;;;1.23;;
78368;SDS011;71113;43.092;-89.268;2023-10-19T07:50:37;2.10;;;1.40;;
78368;SDS011;71113;43.092;-89.268;2023-10-19T07:53:05;2.00;;;1.30;;
78368;SDS011;71113;43.092;-89.268;2023-10-19T07:55:32;1.48;;;1.02;;
78368;SDS011;71113;43.092;-89.268;2023-10-19T07:57:58;2.55;;;1.40;;
78368;SDS011;71113;43.092;-89.268;2023-10-19T08:00:28;2.38;;;1.40;;
78368;SDS011;71113;43.092;-89.268;2023-10-19T08:02:55;1.75;;;1.20;;
78368;SDS011;71113;43.092;-89.268;2023-10-19T08:05:21;1.92;;;1.30;;
78368;SDS011;71113;43.092;-89.268;2023-10-19T08:07:47;1.98;;;1.30;;
78368;SDS011;71113;43.092;-89.268;2023-10-19T08:10:14;1.60;;;1.10;;
78368;SDS011;71113;43.092;-89.268;2023-10-19T08:12:41;1.70;;;1.20;;
78368;SDS011;71113;43.092;-89.268;2023-10-19T08:15:09;1.63;;;1.02;;
78368;SDS011;71113;43.092;-89.268;2023-10-19T08:17:44;1.85;;;1.10;;
78368;SDS011;71113;43.092;-89.268;2023-10-19T08:20:12;2.75;;;1.30;;
78368;SDS011;71113;43.092;-89.268;2023-10-19T08:22:43;2.53;;;1.50;;
78368;SDS011;71113;43.092;-89.268;2023-10-19T08:25:12;1.63;;;1.20;;
78368;SDS011;71113;43.092;-89.268;2023-10-19T08:27:43;1.88;;;1.15;;
78368;SDS011;71113;43.092;-89.268;2023-10-19T08:30:20;1.63;;;1.15;;
78368;SDS011;71113;43.092;-89.268;2023-10-19T08:32:46;2.00;;;1.40;;
78368;SDS011;71113;43.092;-89.268;2023-10-19T08:35:17;1.35;;;0.93;;
78368;SDS011;71113;43.092;-89.268;2023-10-19T08:37:50;2.17;;;1.30;;
78368;SDS011;71113;43.092;-89.268;2023-10-19T08:40:19;1.35;;;1.10;;
78368;SDS011;71113;43.092;-89.268;2023-10-19T08:42:46;1.80;;;1.20;;
78368;SDS011;71113;43.092;-89.268;2023-10-19T08:45:13;2.20;;;1.27;;
78368;SDS011;71113;43.092;-89.268;2023-10-19T08:47:47;1.83;;;1.20;;
78368;SDS011;71113;43.092;-89.268;2023-10-19T08:52:54;1.58;;;1.20;;
78368;SDS011;71113;43.092;-89.268;2023-10-19T08:55:23;2.20;;;1.30;;
78368;SDS011;71113;43.092;-89.268;2023-10-19T08:57:49;2.30;;;1.15;;
78368;SDS011;71113;43.092;-89.268;2023-10-19T09:00:16;2.05;;;1.20;;
78368;SDS011;71113;43.092;-89.268;2023-10-19T09:02:46;2.13;;;1.30;;
78368;SDS011;71113;43.092;-89.268;2023-10-19T09:05:13;1.63;;;1.20;;
78368;SDS011;71113;43.092;-89.268;2023-10-19T09:07:47;1.50;;;1.05;;
78368;SDS011;71113;43.092;-89.268;2023-10-19T09:10:27;2.08;;;1.02;;
78368;SDS011;71113;43.092;-89.268;2023-10-19T09:13:01;1.60;;;1.00;;
78368;SDS011;71113;43.092;-89.268;2023-10-19T09:15:35;1.40;;;1.10;;
78368;SDS011;71113;43.092;-89.268;2023-10-19T09:18:20;1.77;;;1.10;;
78368;SDS011;71113;43.092;-89.268;2023-10-19T09:20:48;1.50;;;0.90;;
78368;SDS011;71113;43.092;-89.268;2023-10-19T09:23:21;2.13;;;1.17;;
78368;SDS011;71113;43.092;-89.268;2023-10-19T09:25:52;1.90;;;1.20;;
78368;SDS011;71113;43.092;-89.268;2023-10-19T09:28:18;2.13;;;1.20;;
78368;SDS011;71113;43.092;-89.268;2023-10-19T09:30:45;1.75;;;1.10;;
78368;SDS011;71113;43.092;-89.268;2023-10-19T09:33:12;1.10;;;0.90;;
78368;SDS011;71113;43.092;-89.268;2023-10-19T09:35:45;1.30;;;0.90;;
78368;SDS011;71113;43.092;-89.268;2023-10-19T09:38:17;1.40;;;1.00;;
78368;SDS011;71113;43.092;-89.268;2023-10-19T09:40:52;1.65;;;1.10;;
78368;SDS011;71113;43.092;-89.268;2023-10-19T09:43:41;2.15;;;1.15;;
78368;SDS011;71113;43.092;-89.268;2023-10-19T09:48:39;1.90;;;1.10;;
78368;SDS011;71113;43.092;-89.268;2023-10-19T09:51:09;1.40;;;1.02;;
78368;SDS011;71113;43.092;-89.268;2023-10-19T09:53:36;2.03;;;1.20;;
78368;SDS011;71113;43.092;-89.268;2023-10-19T09:56:05;2.45;;;1.35;;
78368;SDS011;71113;43.092;-89.268;2023-10-19T09:59:19;1.80;;;1.13;;
78368;SDS011;71113;43.092;-89.268;2023-10-19T10:01:27;1.70;;;0.90;;
78368;SDS011;71113;43.092;-89.268;2023-10-19T10:03:53;1.23;;;1.00;;
78368;SDS011;71113;43.092;-89.268;2023-10-19T10:09:20;1.38;;;1.00;;
78368;SDS011;71113;43.092;-89.268;2023-10-19T10:11:50;0.82;;;0.63;;
78368;SDS011;71113;43.092;-89.268;2023-10-19T10:14:24;2.35;;;1.00;;
78368;SDS011;71113;43.092;-89.268;2023-10-19T10:17:03;1.55;;;0.90;;
78368;SDS011;71113;43.092;-89.268;2023-10-19T10:19:34;1.80;;;1.20;;
78368;SDS011;71113;43.092;-89.268;2023-10-19T10:22:07;1.33;;;1.00;;
78368;SDS011;71113;43.092;-89.268;2023-10-19T10:24:41;1.85;;;1.00;;
78368;SDS011;71113;43.092;-89.268;2023-10-19T10:27:07;2.28;;;1.38;;
78368;SDS011;71113;43.092;-89.268;2023-10-19T10:29:35;2.38;;;1.40;;
78368;SDS011;71113;43.092;-89.268;2023-10-19T10:32:01;2.75;;;1.63;;
78368;SDS011;71113;43.092;-89.268;2023-10-19T10:37:06;1.80;;;1.13;;
78368;SDS011;71113;43.092;-89.268;2023-10-19T10:39:33;2.30;;;1.30;;
78368;SDS011;71113;43.092;-89.268;2023-10-19T10:42:04;2.28;;;1.10;;
78368;SDS011;71113;43.092;-89.268;2023-10-19T10:44:41;1.67;;;1.17;;
78368;SDS011;71113;43.092;-89.268;2023-10-19T10:49:55;1.77;;;1.10;;
78368;SDS011;71113;43.092;-89.268;2023-10-19T10:54:58;1.90;;;1.20;;
78368;SDS011;71113;43.092;-89.268;2023-10-19T10:57:32;2.20;;;1.40;;
78368;SDS011;71113;43.092;-89.268;2023-10-19T11:00:02;2.65;;;1.60;;
78368;SDS011;71113;43.092;-89.268;2023-10-19T11:02:44;2.55;;;1.50;;
78368;SDS011;71113;43.092;-89.268;2023-10-19T11:07:38;5.90;;;3.33;;
78368;SDS011;71113;43.092;-89.268;2023-10-19T11:10:05;5.97;;;2.88;;
78368;SDS011;71113;43.092;-89.268;2023-10-19T11:12:31;6.10;;;3.20;;
78368;SDS011;71113;43.092;-89.268;2023-10-19T11:14:58;6.82;;;2.95;;
78368;SDS011;71113;43.092;-89.268;2023-10-19T11:17:26;5.40;;;2.80;;
78368;SDS011;71113;43.092;-89.268;2023-10-19T11:19:57;6.30;;;3.25;;
78368;SDS011;71113;43.092;-89.268;2023-10-19T11:22:24;5.55;;;3.10;;
78368;SDS011;71113;43.092;-89.268;2023-10-19T11:24:53;5.45;;;2.58;;
78368;SDS011;71113;43.092;-89.268;2023-10-19T11:27:26;5.70;;;2.58;;
78368;SDS011;71113;43.092;-89.268;2023-10-19T11:29:56;5.50;;;3.20;;
78368;SDS011;71113;43.092;-89.268;2023-10-19T11:32:24;6.18;;;3.17;;
78368;SDS011;71113;43.092;-89.268;2023-10-19T11:35:03;10.35;;;4.93;;
78368;SDS011;71113;43.092;-89.268;2023-10-19T11:37:29;10.30;;;4.65;;
78368;SDS011;71113;43.092;-89.268;2023-10-19T11:39:55;8.40;;;3.97;;
78368;SDS011;71113;43.092;-89.268;2023-10-19T11:42:21;7.70;;;4.25;;
78368;SDS011;71113;43.092;-89.268;2023-10-19T11:44:47;6.93;;;3.40;;
78368;SDS011;71113;43.092;-89.268;2023-10-19T11:47:13;6.55;;;3.55;;
78368;SDS011;71113;43.092;-89.268;2023-10-19T11:49:39;6.25;;;3.15;;
78368;SDS011;71113;43.092;-89.268;2023-10-19T11:52:05;5.80;;;3.17;;
78368;SDS011;71113;43.092;-89.268;2023-10-19T11:54:33;8.48;;;3.25;;
78368;SDS011;71113;43.092;-89.268;2023-10-19T11:56:59;6.90;;;3.45;;
78368;SDS011;71113;43.092;-89.268;2023-10-19T11:59:25;205.40;;;120.25;;
78368;SDS011;71113;43.092;-89.268;2023-10-19T12:01:51;237.63;;;113.00;;
78368;SDS011;71113;43.092;-89.268;2023-10-19T12:04:17;114.70;;;51.53;;
78368;SDS011;71113;43.092;-89.268;2023-10-19T12:06:44;257.52;;;94.70;;
78368;SDS011;71113;43.092;-89.268;2023-10-19T12:09:13;143.88;;;61.75;;
78368;SDS011;71113;43.092;-89.268;2023-10-19T12:11:42;145.70;;;63.60;;
78368;SDS011;71113;43.092;-89.268;2023-10-19T12:14:09;152.55;;;68.65;;
78368;SDS011;71113;43.092;-89.268;2023-10-19T12:19:06;137.70;;;59.95;;
78368;SDS011;71113;43.092;-89.268;2023-10-19T12:21:35;143.90;;;62.50;;
78368;SDS011;71113;43.092;-89.268;2023-10-19T12:24:03;137.77;;;58.78;;
78368;SDS011;71113;43.092;-89.268;2023-10-19T12:26:30;148.38;;;60.08;;
78368;SDS011;71113;43.092;-89.268;2023-10-19T12:28:56;132.15;;;59.63;;
78368;SDS011;71113;43.092;-89.268;2023-10-19T12:31:21;130.60;;;55.80;;
78368;SDS011;71113;43.092;-89.268;2023-10-19T12:33:48;129.23;;;54.15;;
78368;SDS011;71113;43.092;-89.268;2023-10-19T12:36:14;121.35;;;51.10;;
78368;SDS011;71113;43.092;-89.268;2023-10-19T12:38:56;113.28;;;49.45;;
78368;SDS011;71113;43.092;-89.268;2023-10-19T12:41:23;106.03;;;47.13;;
78368;SDS011;71113;43.092;-89.268;2023-10-19T12:43:52;111.07;;;48.35;;
78368;SDS011;71113;43.092;-89.268;2023-10-19T12:46:34;111.75;;;48.60;;
78368;SDS011;71113;43.092;-89.268;2023-10-19T12:49:03;113.00;;;47.03;;
78368;SDS011;71113;43.092;-89.268;2023-10-19T12:51:33;105.93;;;45.70;;
78368;SDS011;71113;43.092;-89.268;2023-10-19T12:54:00;106.07;;;45.65;;
78368;SDS011;71113;43.092;-89.268;2023-10-19T12:56:28;101.82;;;44.05;;
78368;SDS011;71113;43.092;-89.268;2023-10-19T12:58:58;98.18;;;43.60;;
78368;SDS011;71113;43.092;-89.268;2023-10-19T13:01:24;96.05;;;42.10;;
78368;SDS011;71113;43.092;-89.268;2023-10-19T13:03:53;91.30;;;38.92;;
78368;SDS011;71113;43.092;-89.268;2023-10-19T13:06:19;85.28;;;37.78;;
78368;SDS011;71113;43.092;-89.268;2023-10-19T13:08:45;86.30;;;37.03;;
78368;SDS011;71113;43.092;-89.268;2023-10-19T13:11:11;83.90;;;36.30;;
78368;SDS011;71113;43.092;-89.268;2023-10-19T13:13:39;85.45;;;37.10;;
78368;SDS011;71113;43.092;-89.268;2023-10-19T13:16:05;80.70;;;34.88;;
78368;SDS011;71113;43.092;-89.268;2023-10-19T13:18:34;80.45;;;35.72;;
78368;SDS011;71113;43.092;-89.268;2023-10-19T13:21:01;79.72;;;34.30;;
78368;SDS011;71113;43.092;-89.268;2023-10-19T13:23:33;81.95;;;35.00;;
78368;SDS011;71113;43.092;-89.268;2023-10-19T13:25:59;73.15;;;31.63;;
78368;SDS011;71113;43.092;-89.268;2023-10-19T13:31:08;72.70;;;31.35;;
78368;SDS011;71113;43.092;-89.268;2023-10-19T13:33:34;67.50;;;28.80;;
78368;SDS011;71113;43.092;-89.268;2023-10-19T13:36:02;60.55;;;26.45;;
78368;SDS011;71113;43.092;-89.268;2023-10-19T13:38:30;62.28;;;26.73;;
78368;SDS011;71113;43.092;-89.268;2023-10-19T13:40:56;65.78;;;27.77;;
78368;SDS011;71113;43.092;-89.268;2023-10-19T13:43:22;60.13;;;26.70;;
78368;SDS011;71113;43.092;-89.268;2023-10-19T13:45:48;59.25;;;25.48;;
78368;SDS011;71113;43.092;-89.268;2023-10-19T13:48:14;63.47;;;27.42;;
78368;SDS011;71113;43.092;-89.268;2023-10-19T13:50:41;59.42;;;26.90;;
78368;SDS011;71113;43.092;-89.268;2023-10-19T13:53:15;57.40;;;25.70;;
78368;SDS011;71113;43.092;-89.268;2023-10-19T13:55:42;60.08;;;25.10;;
78368;SDS011;71113;43.092;-89.268;2023-10-19T13:58:08;57.88;;;24.10;;
78368;SDS011;71113;43.092;-89.268;2023-10-19T14:00:34;51.47;;;23.08;;
78368;SDS011;71113;43.092;-89.268;2023-10-19T14:03:00;48.95;;;22.13;;
78368;SDS011;71113;43.092;-89.268;2023-10-19T14:05:30;49.00;;;21.80;;
78368;SDS011;71113;43.092;-89.268;2023-10-19T14:08:02;202.02;;;106.70;;
78368;SDS011;71113;43.092;-89.268;2023-10-19T14:10:32;404.02;;;173.95;;
78368;SDS011;71113;43.092;-89.268;2023-10-19T14:12:59;154.23;;;70.72;;
78368;SDS011;71113;43.092;-89.268;2023-10-19T14:15:25;159.27;;;76.10;;
78368;SDS011;71113;43.092;-89.268;2023-10-19T14:17:55;207.98;;;99.43;;
78368;SDS011;71113;43.092;-89.268;2023-10-19T14:20:27;202.77;;;101.95;;
78368;SDS011;71113;43.092;-89.268;2023-10-19T14:22:54;224.35;;;104.35;;
78368;SDS011;71113;43.092;-89.268;2023-10-19T14:25:21;195.10;;;88.85;;
78368;SDS011;71113;43.092;-89.268;2023-10-19T14:27:49;178.63;;;83.22;;
78368;SDS011;71113;43.092;-89.268;2023-10-19T14:30:23;172.35;;;77.03;;
78368;SDS011;71113;43.092;-89.268;2023-10-19T14:32:50;153.60;;;69.53;;
78368;SDS011;71113;43.092;-89.268;2023-10-19T14:35:19;147.13;;;66.85;;
78368;SDS011;71113;43.092;-89.268;2023-10-19T14:37:46;133.75;;;61.55;;
78368;SDS011;71113;43.092;-89.268;2023-10-19T14:40:15;136.88;;;62.50;;
78368;SDS011;71113;43.092;-89.268;2023-10-19T14:42:45;132.95;;;61.83;;
78368;SDS011;71113;43.092;-89.268;2023-10-19T14:45:12;131.90;;;60.47;;
78368;SDS011;71113;43.092;-89.268;2023-10-19T14:47:46;132.27;;;61.20;;
78368;SDS011;71113;43.092;-89.268;2023-10-19T14:50:13;197.25;;;89.35;;
78368;SDS011;71113;43.092;-89.268;2023-10-19T14:52:44;219.23;;;100.28;;
78368;SDS011;71113;43.092;-89.268;2023-10-19T14:55:11;171.10;;;79.38;;